createdAt,value
2017-11-14T00:02:24.041Z,76.20
2017-11-14T00:04:51.497Z,76.40
2017-11-14T00:07:18.924Z,76.30
2017-11-14T00:09:46.373Z,76.30
2017-11-14T00:12:13.807Z,76.30
2017-11-14T00:14:41.294Z,76.60
2017-11-14T00:17:09.539Z,76.60
2017-11-14T00:19:36.977Z,76.80
2017-11-14T00:22:04.418Z,77.00
2017-11-14T00:24:32.352Z,76.80
2017-11-14T00:26:59.891Z,76.80
2017-11-14T00:29:27.347Z,76.90
2017-11-14T00:31:54.804Z,76.90
2017-11-14T00:34:22.321Z,77.00
2017-11-14T00:36:49.870Z,77.00
2017-11-14T00:39:18.045Z,76.80
2017-11-14T00:41:46.139Z,76.80
2017-11-14T00:44:13.589Z,76.80
2017-11-14T00:46:42.735Z,76.80
2017-11-14T00:49:10.642Z,76.70
2017-11-14T00:51:38.136Z,76.70
2017-11-14T00:54:05.611Z,76.70
2017-11-14T00:56:33.050Z,76.80
2017-11-14T00:59:00.491Z,77.00
2017-11-14T01:01:27.969Z,77.10
2017-11-14T01:03:55.409Z,77.20
2017-11-14T01:06:22.956Z,77.20
2017-11-14T01:08:50.407Z,77.30
2017-11-14T01:11:17.910Z,77.30
2017-11-14T01:13:45.367Z,77.50
2017-11-14T01:16:12.836Z,77.60
2017-11-14T01:18:40.840Z,77.70
2017-11-14T01:21:08.274Z,77.80
2017-11-14T01:23:35.748Z,77.80
2017-11-14T01:26:03.329Z,77.90
2017-11-14T01:28:30.836Z,78.30
2017-11-14T01:30:58.249Z,78.70
2017-11-14T01:33:25.737Z,78.70
2017-11-14T01:35:53.568Z,78.90
2017-11-14T01:38:21.116Z,78.90
2017-11-14T01:40:48.570Z,78.80
2017-11-14T01:43:15.995Z,78.70
2017-11-14T01:45:43.485Z,78.10
2017-11-14T01:48:10.951Z,77.90
2017-11-14T01:50:38.426Z,77.60
2017-11-14T01:53:05.864Z,77.50
2017-11-14T01:55:33.285Z,77.30
2017-11-14T01:58:01.108Z,77.10
2017-11-14T02:00:40.639Z,77.10
2017-11-14T02:03:09.718Z,77.20
2017-11-14T02:05:37.168Z,77.30
2017-11-14T02:08:04.664Z,77.60
2017-11-14T02:10:32.124Z,77.80
2017-11-14T02:12:59.573Z,78.00
2017-11-14T02:15:27.029Z,78.10
2017-11-14T02:17:54.526Z,78.10
2017-11-14T02:20:22.514Z,78.10
2017-11-14T02:22:49.963Z,78.10
2017-11-14T02:25:17.533Z,78.20
2017-11-14T02:27:45.454Z,78.00
2017-11-14T02:30:20.940Z,77.80
2017-11-14T02:32:48.402Z,77.40
2017-11-14T02:35:15.859Z,77.10
2017-11-14T02:37:43.296Z,77.20
2017-11-14T02:40:10.742Z,77.20
2017-11-14T02:42:38.598Z,77.10
2017-11-14T02:45:06.501Z,76.80
2017-11-14T02:47:33.926Z,76.80
2017-11-14T02:50:01.750Z,76.70
2017-11-14T02:52:29.195Z,76.70
2017-11-14T02:54:56.635Z,76.70
2017-11-14T02:57:24.075Z,76.60
2017-11-14T02:59:51.513Z,76.70
2017-11-14T03:02:18.948Z,76.60
2017-11-14T03:04:46.401Z,77.10
2017-11-14T03:07:13.846Z,77.50
2017-11-14T03:09:41.334Z,77.50
2017-11-14T03:12:08.768Z,77.60
2017-11-14T03:14:36.225Z,77.80
2017-11-14T03:17:05.483Z,78.70
2017-11-14T03:19:32.922Z,78.70
2017-11-14T03:22:00.388Z,79.00
2017-11-14T03:24:27.950Z,79.20
2017-11-14T03:26:55.401Z,79.40
2017-11-14T03:29:22.845Z,79.50
2017-11-14T03:31:50.285Z,79.40
2017-11-14T03:34:18.151Z,79.30
2017-11-14T03:36:45.606Z,79.30
2017-11-14T03:39:13.250Z,78.80
2017-11-14T03:41:40.685Z,78.40
2017-11-14T03:44:08.129Z,77.90
2017-11-14T03:46:35.593Z,77.60
2017-11-14T03:49:03.017Z,77.30
2017-11-14T03:51:31.406Z,77.20
2017-11-14T03:53:59.241Z,77.00
2017-11-14T03:56:26.679Z,77.00
2017-11-14T03:58:54.169Z,76.90
2017-11-14T04:01:21.709Z,77.30
2017-11-14T04:03:49.145Z,77.30
2017-11-14T04:06:17.141Z,77.20
2017-11-14T04:08:44.592Z,77.20
2017-11-14T04:11:12.082Z,77.20
2017-11-14T04:13:39.515Z,77.20
2017-11-14T04:16:06.992Z,77.40
2017-11-14T04:18:34.464Z,77.40
2017-11-14T04:21:02.008Z,77.70
2017-11-14T04:23:29.457Z,77.80
2017-11-14T04:25:56.901Z,78.00
2017-11-14T04:28:24.749Z,78.30
2017-11-14T04:30:52.183Z,78.30
2017-11-14T04:33:19.612Z,78.50
2017-11-14T04:35:47.754Z,78.50
2017-11-14T04:38:15.185Z,78.40
2017-11-14T04:40:42.853Z,78.30
2017-11-14T04:43:10.326Z,78.10
2017-11-14T04:45:37.774Z,78.00
2017-11-14T04:48:05.204Z,77.90
2017-11-14T04:50:32.632Z,77.90
2017-11-14T04:53:01.212Z,78.00
2017-11-14T04:55:28.642Z,78.00
2017-11-14T04:57:56.226Z,78.10
2017-11-14T05:00:23.651Z,78.10
2017-11-14T05:02:51.184Z,78.30
2017-11-14T05:05:19.194Z,78.00
2017-11-14T05:07:46.649Z,78.00
2017-11-14T05:10:14.142Z,77.70
2017-11-14T05:12:41.689Z,77.50
2017-11-14T05:15:09.125Z,77.50
2017-11-14T05:17:37.512Z,77.30
2017-11-14T05:20:05.333Z,77.00
2017-11-14T05:22:32.779Z,77.00
2017-11-14T05:25:00.209Z,77.00
2017-11-14T05:27:27.693Z,76.90
2017-11-14T05:29:55.109Z,77.20
2017-11-14T05:32:22.955Z,77.40
2017-11-14T05:34:50.370Z,77.40
2017-11-14T05:37:17.795Z,78.00
2017-11-14T05:39:46.014Z,78.40
2017-11-14T05:42:13.439Z,78.40
2017-11-14T05:44:42.081Z,78.10
2017-11-14T05:47:09.605Z,78.10
2017-11-14T05:49:37.447Z,78.10
2017-11-14T05:52:05.391Z,77.80
2017-11-14T05:54:33.363Z,77.30
2017-11-14T05:57:00.898Z,77.20
2017-11-14T05:59:28.433Z,77.10
2017-11-14T06:01:56.484Z,76.80
2017-11-14T06:04:24.092Z,76.80
2017-11-14T06:06:51.538Z,76.80
2017-11-14T06:09:19.455Z,77.20
2017-11-14T06:11:47.208Z,77.30
2017-11-14T06:14:14.666Z,77.60
2017-11-14T06:16:42.138Z,77.80
2017-11-14T06:19:09.570Z,77.90
2017-11-14T06:21:37.524Z,78.10
2017-11-14T06:24:05.432Z,78.20
2017-11-14T06:26:32.915Z,78.30
2017-11-14T06:29:00.436Z,78.30
2017-11-14T06:31:28.327Z,78.10
2017-11-14T06:33:56.815Z,78.10
2017-11-14T06:36:24.357Z,78.00
2017-11-14T06:38:53.182Z,77.90
2017-11-14T06:41:20.894Z,77.90
2017-11-14T06:43:48.554Z,77.90
2017-11-14T06:46:16.134Z,78.00
2017-11-14T06:48:43.965Z,78.10
2017-11-14T06:51:11.469Z,78.10
2017-11-14T06:53:38.929Z,77.90
2017-11-14T06:56:06.820Z,77.90
2017-11-14T06:58:34.754Z,78.10
2017-11-14T07:01:02.173Z,78.10
2017-11-14T07:03:30.183Z,78.20
2017-11-14T07:05:57.738Z,78.30
2017-11-14T07:08:25.191Z,78.50
2017-11-14T07:10:52.694Z,78.50
2017-11-14T07:13:20.590Z,78.60
2017-11-14T07:15:49.086Z,78.60
2017-11-14T07:18:16.557Z,78.70
2017-11-14T07:20:44.185Z,78.70
2017-11-14T07:23:12.004Z,78.80
2017-11-14T07:25:39.477Z,78.80
2017-11-14T07:28:06.938Z,78.70
2017-11-14T07:30:34.405Z,78.50
2017-11-14T07:33:02.243Z,78.50
2017-11-14T07:35:29.733Z,78.40
2017-11-14T07:37:57.296Z,78.30
2017-11-14T07:40:24.767Z,78.30
2017-11-14T07:42:52.253Z,78.10
2017-11-14T07:45:20.823Z,77.90
2017-11-14T07:47:49.223Z,77.70
2017-11-14T07:50:16.665Z,77.70
2017-11-14T07:52:44.098Z,77.70
2017-11-14T07:55:11.750Z,77.90
2017-11-14T07:57:39.245Z,78.00
2017-11-14T08:00:06.705Z,78.20
2017-11-14T08:02:34.172Z,78.30
2017-11-14T08:05:01.630Z,78.50
2017-11-14T08:07:29.221Z,78.70
2017-11-14T08:09:56.655Z,78.90
2017-11-14T08:12:24.131Z,79.10
2017-11-14T08:14:51.656Z,79.00
2017-11-14T08:17:19.098Z,79.10
2017-11-14T08:19:46.556Z,79.30
2017-11-14T08:22:14.089Z,79.40
2017-11-14T08:24:41.641Z,79.30
2017-11-14T08:27:09.082Z,79.30
2017-11-14T08:29:36.521Z,79.40
2017-11-14T08:32:03.969Z,79.40
2017-11-14T08:34:31.429Z,79.30
2017-11-14T08:36:59.282Z,79.30
2017-11-14T08:39:27.223Z,79.00
2017-11-14T08:41:54.669Z,79.00
2017-11-14T08:44:22.159Z,78.90
2017-11-14T08:46:49.683Z,79.00
2017-11-14T08:49:17.109Z,78.70
2017-11-14T08:51:45.045Z,78.20
2017-11-14T08:54:13.193Z,78.20
2017-11-14T08:56:40.680Z,78.20
2017-11-14T08:59:08.156Z,78.40
2017-11-14T09:01:35.638Z,78.30
2017-11-14T09:04:03.069Z,78.20
2017-11-14T09:06:30.578Z,78.30
2017-11-14T09:08:58.429Z,78.30
2017-11-14T09:11:26.266Z,78.30
2017-11-14T09:13:53.705Z,78.30
2017-11-14T09:16:21.210Z,78.40
2017-11-14T09:18:48.668Z,78.40
2017-11-14T09:21:16.116Z,78.40
2017-11-14T09:23:44.694Z,78.20
2017-11-14T09:26:12.123Z,78.00
2017-11-14T09:28:39.822Z,77.80
2017-11-14T09:31:07.288Z,77.70
2017-11-14T09:33:34.735Z,77.20
2017-11-14T09:36:02.201Z,76.80
2017-11-14T09:38:29.671Z,76.50
2017-11-14T09:40:58.466Z,76.60
2017-11-14T09:43:25.914Z,75.80
2017-11-14T09:45:53.335Z,75.90
2017-11-14T09:48:21.357Z,75.10
2017-11-14T09:50:48.771Z,75.10
2017-11-14T09:53:16.621Z,75.20
2017-11-14T09:55:44.152Z,75.20
2017-11-14T09:58:11.634Z,75.20
2017-11-14T10:00:39.174Z,74.80
2017-11-14T10:03:06.645Z,74.70
2017-11-14T10:05:34.117Z,74.50
2017-11-14T10:08:01.553Z,74.60
2017-11-14T10:10:29.034Z,74.10
2017-11-14T10:12:56.468Z,74.20
2017-11-14T10:15:23.950Z,73.50
2017-11-14T10:17:51.394Z,73.70
2017-11-14T10:20:18.873Z,73.70
2017-11-14T10:22:46.325Z,73.60
2017-11-14T10:25:13.775Z,73.30
2017-11-14T10:27:41.301Z,73.50
2017-11-14T10:30:08.746Z,73.60
2017-11-14T10:32:36.275Z,73.80
2017-11-14T10:35:04.538Z,74.00
2017-11-14T10:37:31.992Z,73.50
2017-11-14T10:39:59.465Z,73.40
2017-11-14T10:42:26.897Z,73.80
2017-11-14T10:44:54.841Z,73.50
2017-11-14T10:47:23.105Z,73.50
2017-11-14T10:49:50.552Z,73.10
2017-11-14T10:52:18.013Z,72.90
2017-11-14T10:54:45.506Z,72.90
2017-11-14T10:57:13.052Z,72.80
2017-11-14T10:59:40.491Z,72.60
2017-11-14T11:02:07.977Z,70.80
2017-11-14T11:04:35.451Z,70.90
2017-11-14T11:07:02.890Z,71.20
2017-11-14T11:09:30.357Z,71.10
2017-11-14T11:11:57.820Z,70.60
2017-11-14T11:14:25.285Z,70.40
2017-11-14T11:16:52.765Z,70.80
2017-11-14T11:19:20.308Z,71.00
2017-11-14T11:21:47.785Z,71.30
2017-11-14T11:24:15.360Z,71.30
2017-11-14T11:26:42.827Z,71.70
2017-11-14T11:29:10.279Z,71.70
2017-11-14T11:31:37.725Z,72.10
2017-11-14T11:34:05.189Z,72.10
2017-11-14T11:36:32.623Z,72.10
2017-11-14T11:39:00.086Z,71.60
2017-11-14T11:41:27.561Z,71.40
2017-11-14T11:43:55.029Z,71.40
2017-11-14T11:46:22.510Z,70.30
2017-11-14T11:48:50.079Z,70.30
2017-11-14T11:51:17.641Z,70.00
2017-11-14T11:53:45.091Z,70.00
2017-11-14T11:56:12.542Z,70.40
2017-11-14T11:58:39.982Z,69.90
2017-11-14T12:01:07.451Z,69.60
2017-11-14T12:03:34.938Z,69.30
2017-11-14T12:06:02.393Z,69.80
2017-11-14T12:08:30.662Z,69.80
2017-11-14T12:10:59.356Z,69.70
2017-11-14T12:13:26.901Z,70.00
2017-11-14T12:15:54.364Z,69.40
2017-11-14T12:18:21.861Z,69.00
2017-11-14T12:20:49.335Z,68.40
2017-11-14T12:23:16.774Z,68.60
2017-11-14T12:25:44.217Z,68.40
2017-11-14T12:28:12.379Z,68.60
2017-11-14T12:30:39.873Z,68.60
2017-11-14T12:33:07.332Z,69.00
2017-11-14T12:35:34.799Z,68.70
2017-11-14T12:38:02.440Z,67.90
2017-11-14T12:40:29.878Z,67.50
2017-11-14T12:42:58.431Z,66.70
2017-11-14T12:45:26.012Z,66.70
2017-11-14T12:47:53.444Z,66.80
2017-11-14T12:50:20.887Z,65.80
2017-11-14T12:52:48.382Z,66.30
2017-11-14T12:55:15.846Z,66.20
2017-11-14T12:57:43.303Z,66.10
2017-11-14T13:00:10.847Z,65.30
2017-11-14T13:02:38.294Z,65.10
2017-11-14T13:05:05.745Z,65.00
2017-11-14T13:07:34.068Z,64.80
2017-11-14T13:10:01.672Z,65.00
2017-11-14T13:12:30.454Z,63.50
2017-11-14T13:14:58.728Z,63.30
2017-11-14T13:17:26.160Z,63.40
2017-11-14T13:19:53.591Z,63.00
2017-11-14T13:22:21.087Z,62.10
2017-11-14T13:24:48.551Z,62.50
2017-11-14T13:27:16.010Z,62.20
2017-11-14T13:29:43.564Z,62.50
2017-11-14T13:32:11.025Z,62.70
2017-11-14T13:34:38.507Z,63.30
2017-11-14T13:37:05.970Z,63.50
2017-11-14T13:39:33.435Z,63.90
2017-11-14T13:42:00.908Z,64.20
2017-11-14T13:44:28.363Z,63.80
2017-11-14T13:46:55.777Z,63.40
2017-11-14T13:49:23.225Z,63.70
2017-11-14T13:51:51.245Z,62.90
2017-11-14T13:54:18.705Z,63.30
2017-11-14T13:56:46.147Z,63.70
2017-11-14T13:59:14.565Z,64.00
2017-11-14T14:01:42.026Z,63.80
2017-11-14T14:04:09.462Z,64.00
2017-11-14T14:06:36.937Z,64.30
2017-11-14T14:09:05.542Z,64.20
2017-11-14T14:11:32.971Z,63.90
2017-11-14T14:14:00.436Z,64.10
2017-11-14T14:16:27.872Z,64.30
2017-11-14T14:18:55.321Z,64.40
2017-11-14T14:21:22.820Z,64.10
2017-11-14T14:23:50.262Z,64.10
2017-11-14T14:26:18.402Z,63.90
2017-11-14T14:28:46.352Z,63.20
2017-11-14T14:31:13.799Z,63.10
2017-11-14T14:33:41.236Z,63.10
2017-11-14T14:36:08.734Z,63.80
2017-11-14T14:38:36.200Z,64.00
2017-11-14T14:41:03.668Z,64.20
2017-11-14T14:43:31.129Z,64.60
2017-11-14T14:45:58.600Z,64.70
2017-11-14T14:48:26.026Z,64.70
2017-11-14T14:50:53.503Z,64.20
2017-11-14T14:53:21.084Z,64.40
2017-11-14T14:55:48.602Z,64.70
2017-11-14T14:58:17.164Z,64.90
2017-11-14T15:00:45.191Z,64.90
2017-11-14T15:03:12.630Z,64.80
2017-11-14T15:05:40.282Z,65.30
2017-11-14T15:08:07.738Z,65.80
2017-11-14T15:10:35.238Z,66.20
2017-11-14T15:13:02.692Z,66.30
2017-11-14T15:15:30.157Z,66.70
2017-11-14T15:17:57.591Z,66.60
2017-11-14T15:20:25.097Z,66.80
2017-11-14T15:22:52.562Z,67.00
2017-11-14T15:25:20.004Z,67.20
2017-11-14T15:27:47.458Z,67.10
2017-11-14T15:30:14.906Z,66.90
2017-11-14T15:32:42.617Z,67.30
2017-11-14T15:35:10.089Z,67.60
2017-11-14T15:37:37.556Z,67.90
2017-11-14T15:40:04.999Z,67.70
2017-11-14T15:42:32.457Z,67.90
2017-11-14T15:44:59.908Z,67.70
2017-11-14T15:47:27.355Z,67.60
2017-11-14T15:49:54.859Z,67.90
2017-11-14T15:52:22.395Z,68.20
2017-11-14T15:54:50.370Z,68.10
2017-11-14T15:57:17.929Z,68.40
2017-11-14T15:59:45.389Z,68.20
2017-11-14T16:02:12.847Z,68.40
2017-11-14T16:04:40.306Z,68.60
2017-11-14T16:07:07.827Z,69.00
2017-11-14T16:09:35.671Z,69.60
2017-11-14T16:12:03.128Z,69.60
2017-11-14T16:14:30.680Z,69.90
2017-11-14T16:16:58.132Z,70.10
2017-11-14T16:19:25.597Z,70.30
2017-11-14T16:21:53.141Z,70.20
2017-11-14T16:24:20.614Z,70.20
2017-11-14T16:26:48.300Z,70.50
2017-11-14T16:29:15.732Z,70.60
2017-11-14T16:31:43.191Z,71.00
2017-11-14T16:34:10.655Z,70.70
2017-11-14T16:36:38.089Z,71.30
2017-11-14T16:39:05.503Z,71.00
2017-11-14T16:41:32.932Z,70.90
2017-11-14T16:44:01.216Z,70.90
2017-11-14T16:46:28.681Z,70.80
2017-11-14T16:48:56.145Z,70.80
2017-11-14T16:51:23.598Z,71.00
2017-11-14T16:53:51.037Z,71.20
2017-11-14T16:56:18.866Z,71.90
2017-11-14T16:58:46.315Z,71.90
2017-11-14T17:01:13.750Z,72.40
2017-11-14T17:03:42.354Z,72.70
2017-11-14T17:06:09.792Z,73.40
2017-11-14T17:08:37.221Z,73.80
2017-11-14T17:11:04.741Z,74.00
2017-11-14T17:13:32.184Z,74.10
2017-11-14T17:15:59.609Z,74.60
2017-11-14T17:18:27.522Z,74.80
2017-11-14T17:20:54.999Z,74.80
2017-11-14T17:23:22.427Z,74.80
2017-11-14T17:25:50.272Z,74.80
2017-11-14T17:28:17.786Z,74.80
2017-11-14T17:30:45.235Z,74.90
2017-11-14T17:33:12.701Z,74.90
2017-11-14T17:35:40.125Z,75.00
2017-11-14T17:38:07.959Z,75.10
2017-11-14T17:40:35.436Z,75.10
2017-11-14T17:43:02.884Z,75.20
2017-11-14T17:45:30.333Z,75.30
2017-11-14T17:47:57.885Z,75.30
2017-11-14T17:50:26.461Z,75.30
2017-11-14T17:52:53.876Z,75.20
2017-11-14T17:55:21.317Z,75.30
2017-11-14T17:57:48.763Z,75.50
2017-11-14T18:00:16.210Z,75.40
2017-11-14T18:02:44.288Z,75.30
2017-11-14T18:05:11.761Z,75.30
2017-11-14T18:07:39.714Z,75.20
2017-11-14T18:10:07.176Z,75.20
2017-11-14T18:12:35.261Z,75.20
2017-11-14T18:15:02.684Z,75.20
2017-11-14T18:17:30.517Z,75.20
2017-11-14T18:19:57.936Z,75.30
2017-11-14T18:22:25.396Z,75.40
2017-11-14T18:24:52.885Z,75.50
2017-11-14T18:27:20.309Z,75.70
2017-11-14T18:29:48.205Z,75.90
2017-11-14T18:32:16.430Z,75.90
2017-11-14T18:34:43.879Z,75.80
2017-11-14T18:37:11.317Z,75.80
2017-11-14T18:39:39.771Z,75.80
2017-11-14T18:42:07.677Z,75.80
2017-11-14T18:44:35.125Z,75.80
2017-11-14T18:47:02.545Z,75.80
2017-11-14T18:49:29.965Z,75.60
2017-11-14T18:51:57.407Z,75.50
2017-11-14T18:54:24.877Z,75.10
2017-11-14T18:56:52.301Z,75.10
2017-11-14T18:59:20.136Z,74.90
2017-11-14T19:01:47.654Z,74.90
2017-11-14T19:04:15.703Z,74.80
2017-11-14T19:06:43.729Z,74.60
2017-11-14T19:09:11.354Z,74.60
2017-11-14T19:11:39.377Z,74.30
2017-11-14T19:14:07.154Z,74.30
2017-11-14T19:16:34.863Z,74.40
2017-11-14T19:19:02.892Z,74.30
2017-11-14T19:21:31.138Z,74.30
2017-11-14T19:23:58.803Z,74.10
2017-11-14T19:26:26.585Z,73.80
2017-11-14T19:28:54.340Z,74.00
2017-11-14T19:31:21.949Z,74.10
2017-11-14T19:33:49.707Z,73.90
2017-11-14T19:36:17.568Z,73.70
2017-11-14T19:38:46.145Z,73.60
2017-11-14T19:41:14.018Z,73.70
2017-11-14T19:43:41.888Z,73.60
2017-11-14T19:46:09.759Z,73.70
2017-11-14T19:48:37.790Z,73.60
2017-11-14T19:51:06.014Z,73.60
2017-11-14T19:53:33.885Z,73.70
2017-11-14T19:56:01.719Z,73.90
2017-11-14T19:58:29.787Z,73.80
2017-11-14T20:00:57.598Z,73.70
2017-11-14T20:03:25.371Z,73.70
2017-11-14T20:05:53.238Z,73.50
2017-11-14T20:08:21.114Z,73.50
2017-11-14T20:10:48.987Z,73.60
2017-11-14T20:13:16.853Z,73.40
2017-11-14T20:15:44.725Z,73.40
2017-11-14T20:18:12.545Z,73.50
2017-11-14T20:20:41.284Z,73.10
2017-11-14T20:23:09.158Z,73.10
2017-11-14T20:25:36.923Z,73.10
2017-11-14T20:28:04.902Z,73.20
2017-11-14T20:30:32.719Z,73.20
2017-11-14T20:33:01.052Z,72.80
2017-11-14T20:35:28.979Z,72.80
2017-11-14T20:37:56.894Z,72.80
2017-11-14T20:40:24.665Z,72.80
2017-11-14T20:42:52.533Z,72.80
2017-11-14T20:45:20.410Z,72.80
2017-11-14T20:47:48.381Z,72.60
2017-11-14T20:50:16.254Z,72.70
2017-11-14T20:52:44.125Z,72.70
2017-11-14T20:55:11.995Z,72.40
2017-11-14T20:57:40.113Z,72.10
2017-11-14T21:00:07.755Z,72.40
2017-11-14T21:02:35.366Z,72.50
2017-11-14T21:05:03.300Z,72.40
2017-11-14T21:07:31.090Z,72.50
2017-11-14T21:09:59.013Z,72.30
2017-11-14T21:12:26.729Z,72.30
2017-11-14T21:14:54.961Z,72.10
2017-11-14T21:17:22.935Z,72.10
2017-11-14T21:19:50.439Z,72.20
2017-11-14T21:22:17.854Z,72.10
2017-11-14T21:24:45.933Z,72.40
2017-11-14T21:27:13.353Z,72.60
2017-11-14T21:29:41.329Z,72.70
2017-11-14T21:32:09.373Z,72.80
2017-11-14T21:34:36.857Z,72.80
2017-11-14T21:37:04.296Z,73.10
2017-11-14T21:39:31.725Z,73.20
2017-11-14T21:41:59.201Z,73.10
2017-11-14T21:44:27.276Z,72.90
2017-11-14T21:46:54.692Z,72.90
2017-11-14T21:49:22.598Z,72.90
2017-11-14T21:51:50.024Z,72.90
2017-11-14T21:54:17.840Z,73.50
2017-11-14T21:56:45.283Z,73.50
2017-11-14T21:59:12.752Z,73.30
2017-11-14T22:01:40.293Z,73.40
2017-11-14T22:04:08.110Z,73.60
2017-11-14T22:06:35.535Z,73.60
2017-11-14T22:09:02.988Z,74.00
2017-11-14T22:11:30.481Z,74.00
2017-11-14T22:13:57.909Z,74.00
2017-11-14T22:16:25.400Z,73.80
2017-11-14T22:18:52.804Z,73.70
2017-11-14T22:21:20.468Z,73.60
2017-11-14T22:23:47.993Z,73.60
2017-11-14T22:26:15.548Z,73.50
2017-11-14T22:28:42.965Z,74.10
2017-11-14T22:31:10.398Z,74.00
2017-11-14T22:33:37.837Z,73.60
2017-11-14T22:36:05.256Z,73.30
2017-11-14T22:38:33.164Z,73.60
2017-11-14T22:41:00.636Z,73.60
2017-11-14T22:43:28.061Z,73.60
2017-11-14T22:45:55.961Z,73.70
2017-11-14T22:48:24.290Z,73.70
2017-11-14T22:50:51.713Z,73.80
2017-11-14T22:53:19.139Z,74.10
2017-11-14T22:55:46.567Z,74.00
2017-11-14T22:58:14.416Z,73.90
2017-11-14T23:00:41.871Z,73.70
2017-11-14T23:03:09.316Z,73.50
2017-11-14T23:05:36.823Z,73.50
2017-11-14T23:08:04.268Z,73.90
2017-11-14T23:10:31.811Z,74.00
2017-11-14T23:12:59.289Z,74.00
2017-11-14T23:15:27.847Z,74.00
2017-11-14T23:17:55.359Z,73.60
2017-11-14T23:20:22.793Z,73.50
2017-11-14T23:22:50.369Z,73.70
2017-11-14T23:25:17.805Z,74.00
2017-11-14T23:27:45.289Z,74.00
2017-11-14T23:30:12.711Z,73.90
2017-11-14T23:32:40.611Z,73.70
2017-11-14T23:35:08.457Z,73.70
2017-11-14T23:37:35.910Z,73.50
2017-11-14T23:40:03.749Z,74.00
2017-11-14T23:42:31.187Z,74.00
2017-11-14T23:44:58.612Z,74.10
2017-11-14T23:47:26.933Z,74.10
2017-11-14T23:49:54.404Z,74.10
2017-11-14T23:52:21.811Z,73.70
2017-11-14T23:54:49.279Z,73.60
2017-11-14T23:57:16.716Z,73.70
2017-11-14T23:59:44.168Z,74.10
